createdAt,value
2018-03-31T00:01:40.163Z,7.60
2018-03-31T00:04:07.270Z,8.67
2018-03-31T00:06:34.362Z,10.57
2018-03-31T00:09:01.451Z,9.40
2018-03-31T00:11:29.320Z,9.50
2018-03-31T00:13:56.417Z,9.20
2018-03-31T00:16:23.498Z,9.57
2018-03-31T00:18:50.586Z,8.53
2018-03-31T00:21:17.657Z,9.53
2018-03-31T00:23:45.531Z,8.73
2018-03-31T00:26:13.293Z,8.17
2018-03-31T00:28:41.120Z,8.93
2018-03-31T00:31:08.203Z,9.40
2018-03-31T00:33:35.292Z,9.80
2018-03-31T00:36:02.429Z,10.03
2018-03-31T00:38:29.506Z,9.37
2018-03-31T00:40:56.587Z,9.87
2018-03-31T00:43:23.684Z,9.53
2018-03-31T00:45:51.534Z,9.97
2018-03-31T00:48:18.612Z,8.97
2018-03-31T00:50:46.465Z,8.47
2018-03-31T00:53:13.716Z,10.77
2018-03-31T00:55:40.822Z,8.77
2018-03-31T00:58:07.910Z,10.30
2018-03-31T01:00:35.001Z,9.03
2018-03-31T01:03:02.832Z,8.53
2018-03-31T01:05:29.923Z,10.33
2018-03-31T01:07:57.766Z,8.70
2018-03-31T01:10:24.855Z,9.57
2018-03-31T01:12:51.930Z,10.13
2018-03-31T01:15:19.016Z,10.03
2018-03-31T01:17:46.088Z,11.30
2018-03-31T01:20:13.162Z,10.57
2018-03-31T01:22:41.024Z,9.93
2018-03-31T01:25:08.086Z,10.77
2018-03-31T01:27:35.163Z,11.40
2018-03-31T01:30:02.242Z,10.87
2018-03-31T01:32:29.308Z,13.10
2018-03-31T01:34:56.404Z,10.83
2018-03-31T01:37:24.235Z,9.07
2018-03-31T01:39:51.334Z,10.07
2018-03-31T01:42:18.976Z,9.47
2018-03-31T01:44:46.057Z,10.50
2018-03-31T01:47:13.137Z,10.27
2018-03-31T01:49:40.221Z,10.43
2018-03-31T01:52:07.349Z,10.30
2018-03-31T01:54:35.183Z,11.77
2018-03-31T01:57:03.044Z,10.73
2018-03-31T01:59:30.887Z,12.37
2018-03-31T02:01:57.987Z,11.27
2018-03-31T02:04:25.075Z,12.90
2018-03-31T02:06:52.162Z,10.93
2018-03-31T02:09:19.276Z,13.60
2018-03-31T02:11:46.385Z,12.37
2018-03-31T02:14:13.470Z,13.27
2018-03-31T02:16:40.558Z,12.30
2018-03-31T02:19:07.631Z,12.20
2018-03-31T02:21:35.103Z,10.80
2018-03-31T02:24:03.344Z,11.83
2018-03-31T02:26:30.452Z,13.67
2018-03-31T02:28:57.539Z,13.03
2018-03-31T02:31:24.645Z,12.90
2018-03-31T02:33:52.528Z,12.47
2018-03-31T02:36:20.399Z,12.70
2018-03-31T02:38:47.475Z,11.93
2018-03-31T02:41:14.564Z,11.50
2018-03-31T02:43:41.647Z,11.77
2018-03-31T02:46:09.490Z,13.47
2018-03-31T02:48:36.572Z,13.17
2018-03-31T02:51:03.699Z,16.37
2018-03-31T02:53:30.773Z,16.50
2018-03-31T02:55:57.900Z,14.37
2018-03-31T02:58:24.963Z,14.47
2018-03-31T03:00:52.041Z,15.97
2018-03-31T03:03:19.161Z,14.47
2018-03-31T03:05:46.253Z,12.63
2018-03-31T03:08:14.099Z,14.33
2018-03-31T03:10:41.193Z,13.70
2018-03-31T03:13:08.271Z,15.83
2018-03-31T03:15:35.375Z,17.27
2018-03-31T03:18:02.455Z,16.67
2018-03-31T03:20:30.325Z,13.63
2018-03-31T03:22:57.406Z,14.57
2018-03-31T03:25:24.525Z,12.03
2018-03-31T03:27:52.395Z,15.43
2018-03-31T03:30:20.237Z,15.43
2018-03-31T03:32:47.306Z,15.57
2018-03-31T03:35:14.398Z,13.17
2018-03-31T03:37:41.740Z,14.20
2018-03-31T03:40:09.586Z,14.30
2018-03-31T03:42:36.663Z,15.03
2018-03-31T03:45:04.528Z,14.20
2018-03-31T03:47:32.386Z,16.17
2018-03-31T03:49:59.461Z,15.97
2018-03-31T03:52:27.337Z,16.20
2018-03-31T03:54:54.425Z,18.73
2018-03-31T03:57:22.101Z,18.53
2018-03-31T03:59:49.238Z,16.47
2018-03-31T04:02:16.335Z,17.30
2018-03-31T04:04:43.424Z,17.70
2018-03-31T04:07:10.555Z,15.20
2018-03-31T04:09:37.640Z,21.07
2018-03-31T04:12:04.713Z,17.50
2018-03-31T04:14:31.796Z,20.90
2018-03-31T04:16:58.886Z,18.90
2018-03-31T04:19:25.982Z,19.60
2018-03-31T04:21:53.058Z,19.40
2018-03-31T04:24:20.142Z,17.97
2018-03-31T04:26:47.975Z,19.93
2018-03-31T04:29:15.080Z,19.50
2018-03-31T04:31:42.163Z,19.20
2018-03-31T04:34:09.237Z,18.83
2018-03-31T04:36:36.330Z,20.43
2018-03-31T04:39:04.199Z,23.30
2018-03-31T04:41:32.049Z,22.40
2018-03-31T04:43:59.920Z,20.13
2018-03-31T04:46:27.002Z,23.07
2018-03-31T04:48:54.839Z,21.13
2018-03-31T04:51:21.947Z,20.47
2018-03-31T04:53:49.054Z,21.03
2018-03-31T04:56:16.137Z,23.47
2018-03-31T04:58:43.222Z,23.40
2018-03-31T05:01:10.324Z,24.80
2018-03-31T05:03:37.402Z,24.97
2018-03-31T05:06:04.499Z,22.83
2018-03-31T05:08:31.668Z,25.27
2018-03-31T05:10:58.732Z,27.57
2018-03-31T05:13:25.863Z,28.33
2018-03-31T05:15:53.003Z,27.07
2018-03-31T05:18:20.091Z,28.93
2018-03-31T05:20:47.221Z,27.07
2018-03-31T05:23:14.317Z,28.13
2018-03-31T05:25:42.184Z,28.03
2018-03-31T05:28:10.029Z,27.20
2018-03-31T05:30:37.095Z,28.33
2018-03-31T05:33:04.268Z,29.87
2018-03-31T05:35:31.376Z,26.93
2018-03-31T05:37:58.473Z,27.40
2018-03-31T05:40:26.328Z,29.63
2018-03-31T05:42:54.218Z,29.30
2018-03-31T05:45:22.084Z,28.97
2018-03-31T05:47:49.947Z,29.77
2018-03-31T05:50:17.024Z,30.70
2018-03-31T05:52:44.912Z,27.87
2018-03-31T05:55:11.990Z,28.93
2018-03-31T05:57:39.101Z,29.90
2018-03-31T06:00:06.945Z,31.03
2018-03-31T06:02:34.046Z,32.47
2018-03-31T06:05:01.125Z,28.60
2018-03-31T06:07:28.223Z,29.00
2018-03-31T06:09:56.099Z,28.93
2018-03-31T06:12:23.955Z,28.63
2018-03-31T06:14:51.029Z,29.30
2018-03-31T06:17:18.884Z,28.53
2018-03-31T06:19:45.979Z,29.03
2018-03-31T06:22:13.101Z,27.37
2018-03-31T06:24:40.942Z,26.60
2018-03-31T06:27:08.031Z,25.87
2018-03-31T06:29:35.902Z,27.13
2018-03-31T06:32:03.775Z,27.67
2018-03-31T06:34:30.870Z,26.17
2018-03-31T06:36:57.974Z,27.13
2018-03-31T06:39:25.837Z,26.63
2018-03-31T06:41:52.928Z,27.73
2018-03-31T06:44:20.004Z,27.53
2018-03-31T06:46:47.098Z,27.40
2018-03-31T06:49:14.957Z,26.60
2018-03-31T06:51:42.043Z,26.13
2018-03-31T06:54:10.024Z,26.20
2018-03-31T06:56:37.126Z,24.70
2018-03-31T06:59:04.246Z,25.90
2018-03-31T07:01:31.348Z,28.50
2018-03-31T07:03:58.514Z,25.67
2018-03-31T07:06:26.397Z,27.63
2018-03-31T07:08:54.258Z,23.80
2018-03-31T07:11:22.162Z,21.73
2018-03-31T07:13:49.232Z,23.50
2018-03-31T07:16:16.314Z,22.70
2018-03-31T07:18:43.418Z,22.90
2018-03-31T07:21:10.516Z,21.90
2018-03-31T07:23:37.621Z,22.87
2018-03-31T07:26:04.695Z,22.80
2018-03-31T07:28:31.779Z,21.07
2018-03-31T07:30:58.994Z,21.87
2018-03-31T07:33:26.096Z,21.00
2018-03-31T07:35:53.201Z,19.47
2018-03-31T07:38:20.298Z,18.47
2018-03-31T07:40:47.459Z,19.90
2018-03-31T07:43:14.497Z,17.73
2018-03-31T07:45:41.599Z,17.53
2018-03-31T07:48:09.477Z,16.23
2018-03-31T07:50:37.348Z,14.40
2018-03-31T07:53:04.431Z,16.93
2018-03-31T07:55:32.301Z,14.10
2018-03-31T07:57:59.390Z,14.80
2018-03-31T08:00:26.508Z,15.37
2018-03-31T08:02:53.584Z,13.40
2018-03-31T08:05:20.683Z,14.70
2018-03-31T08:07:48.551Z,15.53
2018-03-31T08:10:16.381Z,14.10
2018-03-31T08:12:43.557Z,13.03
2018-03-31T08:15:10.661Z,15.73
2018-03-31T08:17:37.805Z,15.00
2018-03-31T08:20:04.909Z,12.73
2018-03-31T08:22:33.187Z,13.07
2018-03-31T08:25:00.309Z,13.37
2018-03-31T08:27:27.409Z,12.57
2018-03-31T08:29:54.989Z,11.30
2018-03-31T08:32:23.547Z,10.97
2018-03-31T08:34:51.458Z,10.47
2018-03-31T08:37:18.575Z,10.93
2018-03-31T08:39:45.680Z,11.17
2018-03-31T08:42:12.780Z,9.47
2018-03-31T08:44:40.004Z,11.27
2018-03-31T08:47:07.184Z,10.57
2018-03-31T08:49:34.268Z,10.47
2018-03-31T08:52:01.394Z,9.17
2018-03-31T08:54:28.536Z,9.70
2018-03-31T08:56:55.637Z,9.23
2018-03-31T08:59:22.724Z,9.07
2018-03-31T09:01:49.808Z,11.27
2018-03-31T09:04:16.941Z,11.57
2018-03-31T09:06:44.053Z,10.27
2018-03-31T09:09:12.005Z,10.67
2018-03-31T09:11:39.077Z,9.40
2018-03-31T09:14:06.974Z,9.60
2018-03-31T09:16:34.099Z,8.63
2018-03-31T09:19:02.026Z,10.13
2018-03-31T09:21:29.149Z,7.93
2018-03-31T09:23:56.991Z,8.30
2018-03-31T09:26:24.104Z,8.40
2018-03-31T09:28:51.271Z,9.70
2018-03-31T09:31:18.372Z,9.00
2018-03-31T09:33:46.229Z,9.87
2018-03-31T09:36:13.324Z,7.37
2018-03-31T09:38:40.824Z,7.57
2018-03-31T09:41:07.956Z,8.57
2018-03-31T09:43:35.044Z,9.20
2018-03-31T09:46:02.125Z,9.10
2018-03-31T09:48:30.029Z,9.80
2018-03-31T09:50:57.143Z,8.40
2018-03-31T09:53:24.247Z,9.13
2018-03-31T09:55:51.386Z,7.97
2018-03-31T09:58:18.497Z,7.83
2018-03-31T10:00:46.395Z,9.03
2018-03-31T10:03:14.273Z,7.77
2018-03-31T10:05:41.391Z,7.93
2018-03-31T10:08:08.492Z,9.53
2018-03-31T10:10:35.678Z,9.90
2018-03-31T10:13:02.804Z,10.57
2018-03-31T10:15:29.905Z,8.50
2018-03-31T10:17:57.180Z,9.27
2018-03-31T10:20:24.486Z,9.00
2018-03-31T10:22:51.594Z,9.63
2018-03-31T10:25:18.666Z,8.10
2018-03-31T10:27:45.766Z,9.40
2018-03-31T10:30:12.857Z,9.10
2018-03-31T10:32:40.087Z,8.90
2018-03-31T10:35:07.219Z,8.17
2018-03-31T10:37:34.469Z,9.40
2018-03-31T10:40:01.954Z,8.83
2018-03-31T10:42:29.085Z,10.00
2018-03-31T10:44:56.173Z,6.87
2018-03-31T10:47:23.270Z,6.50
2018-03-31T10:49:50.487Z,8.23
2018-03-31T10:52:17.576Z,7.03
2018-03-31T10:54:44.679Z,8.53
2018-03-31T10:57:11.774Z,6.93
2018-03-31T10:59:39.648Z,6.23
2018-03-31T11:02:07.556Z,7.77
2018-03-31T11:04:34.624Z,8.40
2018-03-31T11:07:01.764Z,7.57
2018-03-31T11:09:28.891Z,7.43
2018-03-31T11:11:56.023Z,6.77
2018-03-31T11:14:23.116Z,7.67
2018-03-31T11:16:50.219Z,7.83
2018-03-31T11:19:17.691Z,7.40
2018-03-31T11:21:44.783Z,7.90
2018-03-31T11:24:11.886Z,8.73
2018-03-31T11:26:38.984Z,7.80
2018-03-31T11:29:06.086Z,7.03
2018-03-31T11:31:33.195Z,6.70
2018-03-31T11:34:00.291Z,7.43
2018-03-31T11:36:27.404Z,7.27
2018-03-31T11:38:54.512Z,6.83
2018-03-31T11:41:21.615Z,7.07
2018-03-31T11:43:48.702Z,9.20
2018-03-31T11:46:15.802Z,6.77
2018-03-31T11:48:43.644Z,8.43
2018-03-31T11:51:10.740Z,8.00
2018-03-31T11:53:37.856Z,6.07
2018-03-31T11:56:04.951Z,8.23
2018-03-31T11:58:32.085Z,6.63
2018-03-31T12:00:59.166Z,7.87
2018-03-31T12:03:26.253Z,7.17
2018-03-31T12:05:53.397Z,6.67
2018-03-31T12:08:20.541Z,6.03
2018-03-31T12:10:47.643Z,6.63
2018-03-31T12:13:15.559Z,6.43
2018-03-31T12:15:42.639Z,7.43
2018-03-31T12:18:10.088Z,6.73
2018-03-31T12:20:37.184Z,8.73
2018-03-31T12:23:04.292Z,6.23
2018-03-31T12:25:31.447Z,6.43
2018-03-31T12:27:58.557Z,5.73
2018-03-31T12:30:26.420Z,6.50
2018-03-31T12:32:54.284Z,6.20
2018-03-31T12:35:21.382Z,6.33
2018-03-31T12:37:48.463Z,6.17
2018-03-31T12:40:15.556Z,7.07
2018-03-31T12:42:43.404Z,8.07
2018-03-31T12:45:10.495Z,7.90
2018-03-31T12:47:38.351Z,7.77
2018-03-31T12:50:06.264Z,6.17
2018-03-31T12:52:33.387Z,6.20
2018-03-31T12:55:01.257Z,7.30
2018-03-31T12:57:29.112Z,6.23
2018-03-31T12:59:56.253Z,6.77
2018-03-31T13:02:23.344Z,7.30
2018-03-31T13:04:50.438Z,6.63
2018-03-31T13:07:17.549Z,9.70
2018-03-31T13:09:44.687Z,7.00
2018-03-31T13:12:12.597Z,6.27
2018-03-31T13:14:39.694Z,8.07
2018-03-31T13:17:06.780Z,7.77
2018-03-31T13:19:33.953Z,8.90
2018-03-31T13:22:01.056Z,7.73
2018-03-31T13:24:28.182Z,7.77
2018-03-31T13:26:55.275Z,6.60
2018-03-31T13:29:22.427Z,7.77
2018-03-31T13:31:49.537Z,7.53
2018-03-31T13:34:16.626Z,6.30
2018-03-31T13:36:43.733Z,8.10
2018-03-31T13:39:10.843Z,12.97
2018-03-31T13:41:37.937Z,11.23
2018-03-31T13:44:05.062Z,9.60
2018-03-31T13:46:32.180Z,10.87
2018-03-31T13:48:59.286Z,5.93
2018-03-31T13:51:26.380Z,10.13
2018-03-31T13:53:53.470Z,8.73
2018-03-31T13:56:20.584Z,7.07
2018-03-31T13:58:47.680Z,9.00
2018-03-31T14:01:14.793Z,10.90
2018-03-31T14:03:41.894Z,8.27
2018-03-31T14:06:09.740Z,9.53
2018-03-31T14:08:36.845Z,6.87
2018-03-31T14:11:03.952Z,6.90
2018-03-31T14:13:31.127Z,7.17
2018-03-31T14:15:58.241Z,7.83
2018-03-31T14:18:25.325Z,8.97
2018-03-31T14:20:52.413Z,10.00
2018-03-31T14:23:19.508Z,6.33
2018-03-31T14:25:46.581Z,8.37
2018-03-31T14:28:13.669Z,7.13
2018-03-31T14:30:41.520Z,12.23
2018-03-31T14:33:08.629Z,20.93
2018-03-31T14:35:36.060Z,14.60
2018-03-31T14:38:03.171Z,7.63
2018-03-31T14:40:30.302Z,6.30
2018-03-31T14:42:57.410Z,7.17
2018-03-31T14:45:25.269Z,12.00
2018-03-31T14:47:53.138Z,6.77
2018-03-31T14:50:20.238Z,5.77
2018-03-31T14:52:47.306Z,8.83
2018-03-31T14:55:14.416Z,5.77
2018-03-31T14:57:42.281Z,6.70
2018-03-31T15:00:10.124Z,6.23
2018-03-31T15:02:37.233Z,5.70
2018-03-31T15:05:04.311Z,5.23
2018-03-31T15:07:31.465Z,7.80
2018-03-31T15:09:58.582Z,7.57
2018-03-31T15:12:26.626Z,7.63
2018-03-31T15:14:53.720Z,8.33
2018-03-31T15:17:20.862Z,6.87
2018-03-31T15:19:48.756Z,7.97
2018-03-31T15:22:15.842Z,7.03
2018-03-31T15:24:43.034Z,7.23
2018-03-31T15:27:11.020Z,11.50
2018-03-31T15:29:38.868Z,6.00
2018-03-31T15:32:05.954Z,5.73
2018-03-31T15:34:33.416Z,6.57
2018-03-31T15:37:00.555Z,7.53
2018-03-31T15:39:28.443Z,9.70
2018-03-31T15:41:55.557Z,6.53
2018-03-31T15:44:22.701Z,7.03
2018-03-31T15:46:49.814Z,6.40
2018-03-31T15:49:16.925Z,7.37
2018-03-31T15:51:44.046Z,5.47
2018-03-31T15:54:11.244Z,7.17
2018-03-31T15:56:39.133Z,5.60
2018-03-31T15:59:07.037Z,4.97
2018-03-31T16:01:34.149Z,5.67
2018-03-31T16:04:02.122Z,4.73
2018-03-31T16:06:30.464Z,7.33
2018-03-31T16:08:57.586Z,6.27
2018-03-31T16:11:24.708Z,7.40
2018-03-31T16:13:52.588Z,6.77
2018-03-31T16:16:20.469Z,6.07
2018-03-31T16:18:49.264Z,5.20
2018-03-31T16:21:16.360Z,4.90
2018-03-31T16:23:43.483Z,4.90
2018-03-31T16:26:10.580Z,6.60
2018-03-31T16:28:37.728Z,5.87
2018-03-31T16:31:04.854Z,7.23
2018-03-31T16:33:31.969Z,12.83
2018-03-31T16:35:59.908Z,7.87
2018-03-31T16:38:27.048Z,7.73
2018-03-31T16:40:54.759Z,5.60
2018-03-31T16:43:21.979Z,5.97
2018-03-31T16:45:49.071Z,5.20
2018-03-31T16:48:17.077Z,4.60
2018-03-31T16:50:44.216Z,7.20
2018-03-31T16:53:11.331Z,4.57
2018-03-31T16:55:38.588Z,6.43
2018-03-31T16:58:05.683Z,5.87
2018-03-31T17:00:33.538Z,6.97
2018-03-31T17:03:00.643Z,6.63
2018-03-31T17:05:27.721Z,4.80
2018-03-31T17:07:54.821Z,6.47
2018-03-31T17:10:22.703Z,7.07
2018-03-31T17:12:49.816Z,5.60
2018-03-31T17:15:16.904Z,7.63
2018-03-31T17:17:44.011Z,6.23
2018-03-31T17:20:11.145Z,6.77
2018-03-31T17:22:38.223Z,8.73
2018-03-31T17:25:05.343Z,13.77
2018-03-31T17:27:32.479Z,8.93
2018-03-31T17:29:59.588Z,6.30
2018-03-31T17:32:26.662Z,11.00
2018-03-31T17:34:53.760Z,15.10
2018-03-31T17:37:21.630Z,10.47
2018-03-31T17:39:48.721Z,10.63
2018-03-31T17:42:15.812Z,11.40
2018-03-31T17:44:43.680Z,10.00
2018-03-31T17:47:10.783Z,9.13
2018-03-31T17:49:37.896Z,10.03
2018-03-31T17:52:05.008Z,8.30
2018-03-31T17:54:32.104Z,11.40
2018-03-31T17:56:59.253Z,12.27
2018-03-31T17:59:27.119Z,6.77
2018-03-31T18:01:55.447Z,3.47
2018-03-31T18:04:22.547Z,5.10
2018-03-31T18:06:49.743Z,4.17
2018-03-31T18:09:16.844Z,3.87
2018-03-31T18:11:44.051Z,4.33
2018-03-31T18:14:11.138Z,4.03
2018-03-31T18:16:38.752Z,3.83
2018-03-31T18:19:06.646Z,4.43
2018-03-31T18:21:33.864Z,5.30
2018-03-31T18:24:00.987Z,5.03
2018-03-31T18:26:28.104Z,11.17
2018-03-31T18:28:55.180Z,8.90
2018-03-31T18:31:22.316Z,8.40
2018-03-31T18:33:49.436Z,6.90
2018-03-31T18:36:17.304Z,8.10
2018-03-31T18:38:44.388Z,5.43
2018-03-31T18:41:11.953Z,8.17
2018-03-31T18:43:39.054Z,6.80
2018-03-31T18:46:06.150Z,6.03
2018-03-31T18:48:33.231Z,7.43
2018-03-31T18:51:00.386Z,8.50
2018-03-31T18:53:28.211Z,8.17
2018-03-31T18:55:56.297Z,7.73
2018-03-31T18:58:24.268Z,6.40
2018-03-31T19:00:51.772Z,6.20
2018-03-31T19:03:18.886Z,8.10
2018-03-31T19:05:45.961Z,8.73
2018-03-31T19:08:13.028Z,8.00
2018-03-31T19:10:40.256Z,9.33
2018-03-31T19:13:07.356Z,10.03
2018-03-31T19:15:34.436Z,7.70
2018-03-31T19:18:01.516Z,7.57
2018-03-31T19:20:28.622Z,9.70
2018-03-31T19:22:55.711Z,7.37
2018-03-31T19:25:29.077Z,7.00
2018-03-31T19:27:56.182Z,7.63
2018-03-31T19:30:38.140Z,8.43
2018-03-31T19:33:05.213Z,9.37
2018-03-31T19:35:48.845Z,7.93
2018-03-31T19:38:15.937Z,8.67
2018-03-31T19:40:43.038Z,7.43
2018-03-31T19:43:10.893Z,8.03
2018-03-31T19:45:38.027Z,7.47
2018-03-31T19:48:05.096Z,7.20
2018-03-31T19:50:32.238Z,9.57
2018-03-31T19:52:59.338Z,8.53
2018-03-31T19:55:26.404Z,10.17
2018-03-31T19:57:53.516Z,8.70
2018-03-31T20:00:20.672Z,8.60
2018-03-31T20:02:47.800Z,14.20
2018-03-31T20:05:14.921Z,12.43
2018-03-31T20:07:42.049Z,8.60
2018-03-31T20:10:09.128Z,8.57
2018-03-31T20:12:36.214Z,7.83
2018-03-31T20:15:03.352Z,8.47
2018-03-31T20:17:31.279Z,10.13
2018-03-31T20:19:59.185Z,6.90
2018-03-31T20:22:26.263Z,10.87
2018-03-31T20:24:53.413Z,15.30
2018-03-31T20:27:20.482Z,10.40
2018-03-31T20:29:47.570Z,9.13
2018-03-31T20:32:14.658Z,8.10
2018-03-31T20:34:41.788Z,8.33
2018-03-31T20:37:09.653Z,7.67
2018-03-31T20:39:37.519Z,8.40
2018-03-31T20:42:04.616Z,8.60
2018-03-31T20:44:31.695Z,10.50
2018-03-31T20:46:58.768Z,9.47
2018-03-31T20:49:25.882Z,20.20
2018-03-31T20:51:53.019Z,19.77
2018-03-31T20:54:20.093Z,14.07
2018-03-31T20:56:47.174Z,11.77
2018-03-31T20:59:14.294Z,9.37
2018-03-31T21:01:41.489Z,8.83
2018-03-31T21:04:08.585Z,11.50
2018-03-31T21:06:35.676Z,9.23
2018-03-31T21:09:02.796Z,9.67
2018-03-31T21:11:29.888Z,10.23
2018-03-31T21:13:57.001Z,12.87
2018-03-31T21:16:24.877Z,10.30
2018-03-31T21:18:52.748Z,9.37
2018-03-31T21:21:19.848Z,10.37
2018-03-31T21:23:46.932Z,8.93
2018-03-31T21:26:14.049Z,11.00
2018-03-31T21:28:41.152Z,10.37
2018-03-31T21:31:08.242Z,10.97
2018-03-31T21:33:36.100Z,11.20
2018-03-31T21:36:03.193Z,11.93
2018-03-31T21:38:30.271Z,12.20
2018-03-31T21:40:57.345Z,12.77
2018-03-31T21:43:25.215Z,20.40
2018-03-31T21:45:53.099Z,19.33
2018-03-31T21:48:20.231Z,17.67
2018-03-31T21:50:47.408Z,20.07
2018-03-31T21:53:14.507Z,16.13
2018-03-31T21:55:41.603Z,14.80
2018-03-31T21:58:09.471Z,15.77
2018-03-31T22:00:37.341Z,20.13
2018-03-31T22:03:05.199Z,13.80
2018-03-31T22:05:33.074Z,15.50
2018-03-31T22:08:00.186Z,15.40
2018-03-31T22:10:27.281Z,15.83
2018-03-31T22:12:59.950Z,17.67
2018-03-31T22:15:32.640Z,17.13
2018-03-31T22:17:59.727Z,16.23
2018-03-31T22:20:26.823Z,18.50
2018-03-31T22:22:53.912Z,38.47
2018-03-31T22:25:20.999Z,17.77
2018-03-31T22:27:48.086Z,25.07
2018-03-31T22:30:15.203Z,16.27
2018-03-31T22:32:42.287Z,16.47
2018-03-31T22:35:09.381Z,18.60
2018-03-31T22:37:37.254Z,17.50
2018-03-31T22:40:05.138Z,18.30
2018-03-31T22:42:32.224Z,18.30
2018-03-31T22:45:00.086Z,17.00
2018-03-31T22:47:27.808Z,18.80
2018-03-31T22:49:54.876Z,18.23
2018-03-31T22:52:21.992Z,17.33
2018-03-31T22:54:49.087Z,16.70
2018-03-31T22:57:16.980Z,16.33
2018-03-31T22:59:44.063Z,16.23
2018-03-31T23:02:11.133Z,19.60
2018-03-31T23:04:38.221Z,18.27
2018-03-31T23:07:05.317Z,18.03
2018-03-31T23:09:32.416Z,16.90
2018-03-31T23:11:59.567Z,18.37
2018-03-31T23:14:26.613Z,19.57
2018-03-31T23:16:53.707Z,18.97
2018-03-31T23:19:20.868Z,20.80
2018-03-31T23:21:48.756Z,21.50
2018-03-31T23:24:15.896Z,22.87
2018-03-31T23:26:42.989Z,22.33
2018-03-31T23:29:10.084Z,23.07
2018-03-31T23:31:37.938Z,22.47
2018-03-31T23:34:05.042Z,24.27
2018-03-31T23:36:32.117Z,21.07
2018-03-31T23:38:59.206Z,23.43
2018-03-31T23:41:27.644Z,23.37
2018-03-31T23:43:54.724Z,21.13
2018-03-31T23:46:21.806Z,21.57
2018-03-31T23:48:48.896Z,22.07
2018-03-31T23:51:15.973Z,22.87
2018-03-31T23:53:43.077Z,23.57
2018-03-31T23:56:10.151Z,24.20
2018-03-31T23:58:37.270Z,25.63
